createdAt,value
2023-01-19T00:01:35.079Z,6.40
2023-01-19T00:03:36.359Z,5.53
2023-01-19T00:05:37.239Z,6.80
2023-01-19T00:07:38.248Z,4.47
2023-01-19T00:09:39.261Z,7.47
2023-01-19T00:11:40.062Z,6.17
2023-01-19T00:13:40.952Z,4.87
2023-01-19T00:15:41.939Z,8.05
2023-01-19T00:17:42.812Z,8.58
2023-01-19T00:19:43.590Z,4.45
2023-01-19T00:21:44.462Z,4.00
2023-01-19T00:23:47.926Z,6.85
2023-01-19T00:25:50.525Z,2.55
2023-01-19T00:27:51.328Z,6.60
2023-01-19T00:29:52.529Z,4.45
2023-01-19T00:31:53.432Z,4.30
2023-01-19T00:33:54.324Z,7.08
2023-01-19T00:35:55.317Z,6.20
2023-01-19T00:37:57.052Z,5.40
2023-01-19T00:39:58.137Z,6.62
2023-01-19T00:42:17.661Z,8.25
2023-01-19T00:44:18.569Z,5.70
2023-01-19T00:46:19.468Z,5.20
2023-01-19T00:48:20.354Z,7.42
2023-01-19T00:50:21.240Z,8.73
2023-01-19T00:52:22.061Z,6.60
2023-01-19T00:54:22.953Z,6.75
2023-01-19T00:56:24.190Z,6.15
2023-01-19T00:58:25.123Z,3.08
2023-01-19T01:00:25.999Z,5.72
2023-01-19T01:02:26.985Z,5.80
2023-01-19T01:04:27.938Z,4.25
2023-01-19T01:06:28.826Z,3.02
2023-01-19T01:08:29.906Z,4.80
2023-01-19T01:10:30.796Z,2.35
2023-01-19T01:12:31.708Z,2.95
2023-01-19T01:14:32.822Z,4.03
2023-01-19T01:16:33.777Z,5.42
2023-01-19T01:18:34.702Z,3.80
2023-01-19T01:20:36.785Z,7.97
2023-01-19T01:22:38.599Z,7.30
2023-01-19T01:24:39.545Z,7.10
2023-01-19T01:26:40.431Z,6.40
2023-01-19T01:28:41.296Z,3.15
2023-01-19T01:30:43.379Z,9.80
2023-01-19T01:32:44.333Z,4.75
2023-01-19T01:34:45.260Z,3.65
2023-01-19T01:36:46.152Z,5.25
2023-01-19T01:38:47.084Z,3.30
2023-01-19T01:40:48.216Z,7.15
2023-01-19T01:42:49.025Z,8.25
2023-01-19T01:44:52.831Z,6.80
2023-01-19T01:46:53.724Z,6.28
2023-01-19T01:48:56.533Z,6.12
2023-01-19T01:51:17.908Z,5.95
2023-01-19T01:53:18.796Z,3.08
2023-01-19T01:55:21.944Z,3.42
2023-01-19T01:57:24.882Z,3.60
2023-01-19T01:59:27.576Z,6.08
2023-01-19T02:01:47.068Z,6.30
2023-01-19T02:03:48.067Z,2.50
2023-01-19T02:05:49.393Z,3.52
2023-01-19T02:08:19.376Z,8.93
2023-01-19T02:10:38.848Z,6.42
2023-01-19T02:12:58.683Z,2.08
2023-01-19T02:14:59.624Z,4.70
2023-01-19T02:17:00.543Z,5.67
2023-01-19T02:19:01.399Z,6.30
2023-01-19T02:21:18.256Z,5.35
2023-01-19T02:23:21.144Z,8.10
2023-01-19T02:25:22.445Z,3.05
2023-01-19T02:27:23.330Z,5.17
2023-01-19T02:29:25.320Z,5.28
2023-01-19T02:31:27.724Z,4.10
2023-01-19T02:33:28.808Z,2.85
2023-01-19T02:35:30.301Z,6.25
2023-01-19T02:37:33.583Z,4.42
2023-01-19T02:39:36.324Z,8.20
2023-01-19T02:41:39.114Z,3.92
2023-01-19T02:43:41.206Z,4.90
2023-01-19T02:45:42.434Z,3.00
2023-01-19T02:47:44.571Z,5.22
2023-01-19T02:49:47.393Z,4.22
2023-01-19T02:51:48.679Z,6.80
2023-01-19T02:53:54.734Z,4.28
2023-01-19T02:55:57.514Z,5.25
2023-01-19T02:58:09.250Z,3.80
2023-01-19T03:00:29.068Z,6.70
2023-01-19T03:02:43.975Z,4.47
2023-01-19T03:04:49.847Z,6.42
2023-01-19T03:06:52.539Z,4.30
2023-01-19T03:08:58.060Z,3.05
2023-01-19T03:11:01.062Z,6.78
2023-01-19T03:13:18.950Z,5.17
2023-01-19T03:15:21.694Z,2.60
2023-01-19T03:17:22.578Z,5.22
2023-01-19T03:19:26.482Z,1.72
2023-01-19T03:21:27.763Z,4.95
2023-01-19T03:23:30.848Z,2.33
2023-01-19T03:25:33.736Z,3.62
2023-01-19T03:27:38.328Z,4.55
2023-01-19T03:29:41.009Z,5.47
2023-01-19T03:31:43.207Z,4.92
2023-01-19T03:33:45.870Z,5.00
2023-01-19T03:35:48.577Z,6.22
2023-01-19T03:37:52.275Z,5.10
2023-01-19T03:39:53.178Z,3.90
2023-01-19T03:41:55.874Z,6.70
2023-01-19T03:43:57.171Z,2.87
2023-01-19T03:45:58.725Z,4.05
2023-01-19T03:47:59.981Z,5.62
2023-01-19T03:50:02.235Z,6.08
2023-01-19T03:52:03.430Z,5.85
2023-01-19T03:54:06.266Z,3.72
2023-01-19T03:56:08.984Z,1.92
2023-01-19T03:58:10.074Z,3.62
2023-01-19T04:00:11.852Z,5.28
2023-01-19T04:02:15.689Z,5.40
2023-01-19T04:04:16.572Z,3.65
2023-01-19T04:06:18.046Z,4.53
2023-01-19T04:08:18.943Z,5.87
2023-01-19T04:10:20.421Z,3.47
2023-01-19T04:12:21.205Z,4.85
2023-01-19T04:14:22.100Z,3.70
2023-01-19T04:16:23.003Z,3.85
2023-01-19T04:18:23.800Z,3.15
2023-01-19T04:20:26.578Z,5.62
2023-01-19T04:22:27.464Z,6.78
2023-01-19T04:24:28.263Z,2.47
2023-01-19T04:26:29.044Z,2.80
2023-01-19T04:28:30.832Z,6.12
2023-01-19T04:30:31.632Z,3.98
2023-01-19T04:32:32.399Z,5.37
2023-01-19T04:34:33.175Z,0.85
2023-01-19T04:36:34.267Z,1.57
2023-01-19T04:38:35.250Z,5.45
2023-01-19T04:40:36.158Z,7.03
2023-01-19T04:42:37.062Z,5.75
2023-01-19T04:44:37.830Z,4.72
2023-01-19T04:46:38.782Z,6.20
2023-01-19T04:48:41.405Z,2.10
2023-01-19T04:50:42.464Z,3.83
2023-01-19T04:52:43.351Z,3.95
2023-01-19T04:54:44.254Z,4.12
2023-01-19T04:56:46.039Z,2.10
2023-01-19T04:58:46.840Z,2.27
2023-01-19T05:00:47.792Z,3.95
2023-01-19T05:02:48.763Z,2.72
2023-01-19T05:04:49.917Z,5.40
2023-01-19T05:06:51.152Z,6.28
2023-01-19T05:08:52.039Z,5.08
2023-01-19T05:10:52.924Z,7.78
2023-01-19T05:12:54.346Z,6.50
2023-01-19T05:14:55.238Z,3.42
2023-01-19T05:16:56.248Z,7.72
2023-01-19T05:18:57.156Z,6.08
2023-01-19T05:20:57.939Z,7.35
2023-01-19T05:22:59.210Z,7.15
2023-01-19T05:25:01.192Z,5.65
2023-01-19T05:27:02.183Z,6.22
2023-01-19T05:29:03.059Z,4.62
2023-01-19T05:31:04.371Z,4.50
2023-01-19T05:33:05.358Z,4.25
2023-01-19T05:35:06.900Z,8.78
2023-01-19T05:37:07.900Z,5.90
2023-01-19T05:39:08.783Z,5.62
2023-01-19T05:41:09.676Z,7.75
2023-01-19T05:43:10.843Z,3.83
2023-01-19T05:45:11.842Z,4.95
2023-01-19T05:47:12.825Z,6.22
2023-01-19T05:49:13.820Z,5.30
2023-01-19T05:51:14.748Z,5.20
2023-01-19T05:53:16.325Z,4.65
2023-01-19T05:55:17.230Z,4.87
2023-01-19T05:57:18.304Z,4.97
2023-01-19T05:59:21.034Z,2.67
2023-01-19T06:01:22.310Z,5.62
2023-01-19T06:03:23.608Z,3.12
2023-01-19T06:05:24.939Z,2.37
2023-01-19T06:07:28.918Z,6.22
2023-01-19T06:09:29.504Z,2.12
2023-01-19T06:11:30.296Z,1.75
2023-01-19T06:13:31.181Z,4.65
2023-01-19T06:15:32.104Z,2.58
2023-01-19T06:17:33.027Z,2.25
2023-01-19T06:19:34.308Z,5.65
2023-01-19T06:21:35.233Z,4.90
2023-01-19T06:23:36.116Z,3.90
2023-01-19T06:25:37.043Z,4.92
2023-01-19T06:27:39.217Z,1.87
2023-01-19T06:29:40.309Z,1.82
2023-01-19T06:31:41.275Z,5.72
2023-01-19T06:33:42.206Z,3.52
2023-01-19T06:35:43.784Z,3.52
2023-01-19T06:37:44.585Z,3.60
2023-01-19T06:39:45.467Z,6.60
2023-01-19T06:41:46.384Z,12.13
2023-01-19T06:43:47.253Z,2.92
2023-01-19T06:45:49.371Z,5.53
2023-01-19T06:47:50.294Z,6.03
2023-01-19T06:49:51.082Z,7.17
2023-01-19T06:51:51.976Z,3.65
2023-01-19T06:53:52.863Z,5.47
2023-01-19T06:55:55.772Z,7.78
2023-01-19T06:57:58.790Z,4.12
2023-01-19T07:00:01.374Z,4.35
2023-01-19T07:02:26.713Z,4.83
2023-01-19T07:04:05.097Z,4.17
2023-01-19T07:06:05.973Z,5.22
2023-01-19T07:08:07.286Z,8.63
2023-01-19T07:10:08.820Z,3.87
2023-01-19T07:12:09.662Z,7.65
2023-01-19T07:14:11.310Z,3.30
2023-01-19T07:16:12.531Z,8.58
2023-01-19T07:18:13.383Z,6.42
2023-01-19T07:20:14.922Z,3.40
2023-01-19T07:22:16.138Z,3.85
2023-01-19T07:24:17.003Z,5.72
2023-01-19T07:26:19.689Z,7.42
2023-01-19T07:28:21.303Z,8.78
2023-01-19T07:30:22.183Z,7.65
2023-01-19T07:32:22.952Z,6.67
2023-01-19T07:34:23.724Z,8.33
2023-01-19T07:36:24.708Z,6.05
2023-01-19T07:38:25.498Z,6.30
2023-01-19T07:40:26.283Z,7.15
2023-01-19T07:42:27.075Z,6.53
2023-01-19T07:44:27.988Z,9.85
2023-01-19T07:46:28.862Z,6.97
2023-01-19T07:48:29.889Z,10.15
2023-01-19T07:50:30.875Z,12.13
2023-01-19T07:52:31.662Z,5.50
2023-01-19T07:54:32.928Z,7.90
2023-01-19T07:56:33.895Z,7.58
2023-01-19T07:58:35.403Z,5.78
2023-01-19T08:00:37.407Z,7.37
2023-01-19T08:02:38.186Z,9.13
2023-01-19T08:04:39.055Z,6.35
2023-01-19T08:06:40.367Z,10.50
2023-01-19T08:08:41.203Z,11.60
2023-01-19T08:10:42.070Z,9.70
2023-01-19T08:12:42.955Z,6.33
2023-01-19T08:14:43.825Z,5.62
2023-01-19T08:16:44.700Z,10.95
2023-01-19T08:18:45.727Z,15.90
2023-01-19T08:20:46.598Z,8.58
2023-01-19T08:22:47.370Z,8.70
2023-01-19T08:24:50.305Z,11.10
2023-01-19T08:26:52.739Z,9.15
2023-01-19T08:28:54.030Z,6.33
2023-01-19T08:30:55.074Z,8.48
2023-01-19T08:32:58.618Z,10.43
2023-01-19T08:34:59.695Z,11.57
2023-01-19T08:37:00.583Z,14.30
2023-01-19T08:39:01.463Z,4.65
2023-01-19T08:41:02.323Z,8.05
2023-01-19T08:43:06.075Z,7.25
2023-01-19T08:45:08.552Z,9.48
2023-01-19T08:47:09.401Z,9.50
2023-01-19T08:49:10.442Z,13.75
2023-01-19T08:51:12.132Z,8.75
2023-01-19T08:53:13.218Z,8.35
2023-01-19T08:55:14.022Z,10.65
2023-01-19T08:57:15.313Z,9.60
2023-01-19T08:59:16.318Z,10.80
2023-01-19T09:01:19.383Z,11.93
2023-01-19T09:03:21.986Z,7.60
2023-01-19T09:05:23.115Z,8.53
2023-01-19T09:07:23.925Z,8.50
2023-01-19T09:09:24.834Z,8.85
2023-01-19T09:11:26.727Z,6.45
2023-01-19T09:13:27.724Z,8.50
2023-01-19T09:15:29.036Z,6.53
2023-01-19T09:17:29.992Z,7.30
2023-01-19T09:19:30.815Z,10.13
2023-01-19T09:21:31.832Z,9.18
2023-01-19T09:23:32.689Z,11.88
2023-01-19T09:25:33.477Z,8.40
2023-01-19T09:27:34.785Z,6.87
2023-01-19T09:29:35.760Z,8.68
2023-01-19T09:31:36.699Z,5.67
2023-01-19T09:33:37.755Z,6.50
2023-01-19T09:35:39.049Z,8.05
2023-01-19T09:37:39.936Z,11.93
2023-01-19T09:39:41.077Z,9.80
2023-01-19T09:41:43.835Z,5.53
2023-01-19T09:43:47.017Z,12.15
2023-01-19T09:45:49.956Z,8.10
2023-01-19T09:47:51.559Z,7.28
2023-01-19T09:49:58.132Z,14.25
2023-01-19T09:51:59.423Z,11.97
2023-01-19T09:54:08.184Z,7.80
2023-01-19T09:56:13.901Z,4.65
2023-01-19T09:58:17.736Z,11.43
2023-01-19T10:00:19.637Z,11.80
2023-01-19T10:02:31.751Z,10.95
2023-01-19T10:04:34.770Z,4.62
2023-01-19T10:06:35.771Z,6.47
2023-01-19T10:08:41.487Z,10.25
2023-01-19T10:10:44.276Z,2.12
2023-01-19T10:13:05.373Z,7.85
2023-01-19T10:15:25.060Z,10.05
2023-01-19T10:17:33.751Z,5.17
2023-01-19T10:19:39.614Z,6.28
2023-01-19T10:21:42.388Z,7.80
2023-01-19T10:23:47.964Z,5.67
2023-01-19T10:25:49.177Z,10.18
2023-01-19T10:27:50.052Z,4.40
2023-01-19T10:29:50.982Z,13.08
2023-01-19T10:31:53.766Z,9.28
2023-01-19T10:33:54.665Z,7.87
2023-01-19T10:35:55.661Z,10.25
2023-01-19T10:37:58.468Z,7.85
2023-01-19T10:40:13.063Z,5.92
2023-01-19T10:42:15.472Z,9.90
2023-01-19T10:44:24.590Z,7.67
2023-01-19T10:46:27.607Z,1.45
2023-01-19T10:48:30.509Z,6.80
2023-01-19T10:50:32.810Z,7.22
2023-01-19T10:52:35.501Z,4.85
2023-01-19T10:54:36.688Z,9.53
2023-01-19T10:56:37.795Z,10.32
2023-01-19T10:58:40.096Z,6.92
2023-01-19T11:00:41.882Z,5.17
2023-01-19T11:02:44.690Z,6.78
2023-01-19T11:04:50.072Z,6.75
2023-01-19T11:06:51.224Z,3.60
2023-01-19T11:08:53.228Z,7.97
2023-01-19T11:10:58.953Z,4.10
2023-01-19T11:13:05.817Z,5.12
2023-01-19T11:15:17.568Z,4.90
2023-01-19T11:17:23.453Z,8.35
2023-01-19T11:19:25.981Z,6.60
2023-01-19T11:21:28.051Z,6.83
2023-01-19T11:23:30.643Z,8.15
2023-01-19T11:25:32.830Z,2.87
2023-01-19T11:27:35.611Z,7.92
2023-01-19T11:29:36.895Z,7.90
2023-01-19T11:31:37.783Z,7.75
2023-01-19T11:33:46.399Z,5.83
2023-01-19T11:35:47.217Z,9.35
2023-01-19T11:37:48.155Z,7.30
2023-01-19T11:39:54.022Z,5.83
2023-01-19T11:41:56.816Z,3.87
2023-01-19T11:43:59.491Z,6.15
2023-01-19T11:46:00.922Z,4.12
2023-01-19T11:48:04.311Z,7.78
2023-01-19T11:50:07.465Z,6.92
2023-01-19T11:52:10.645Z,6.70
2023-01-19T11:54:16.717Z,8.33
2023-01-19T11:56:18.102Z,6.72
2023-01-19T11:58:19.892Z,7.80
2023-01-19T12:00:29.122Z,11.40
2023-01-19T12:02:32.063Z,5.42
2023-01-19T12:04:34.846Z,6.95
2023-01-19T12:06:37.544Z,8.95
2023-01-19T12:08:43.091Z,5.35
2023-01-19T12:10:45.312Z,5.72
2023-01-19T12:12:46.601Z,7.53
2023-01-19T12:14:58.166Z,4.87
2023-01-19T12:17:00.845Z,7.42
2023-01-19T12:19:18.252Z,8.58
2023-01-19T12:21:19.590Z,8.68
2023-01-19T12:23:25.593Z,6.95
2023-01-19T12:25:37.306Z,6.30
2023-01-19T12:27:42.554Z,6.65
2023-01-19T12:29:44.986Z,7.37
2023-01-19T12:31:49.903Z,6.87
2023-01-19T12:33:50.556Z,4.08
2023-01-19T12:36:00.034Z,2.37
2023-01-19T12:38:00.907Z,6.37
2023-01-19T12:40:18.940Z,5.90
2023-01-19T12:42:21.345Z,6.00
2023-01-19T12:44:24.224Z,4.65
2023-01-19T12:46:26.968Z,6.03
2023-01-19T12:48:29.808Z,5.80
2023-01-19T12:50:32.621Z,7.03
2023-01-19T12:52:39.984Z,8.50
2023-01-19T12:54:42.778Z,7.35
2023-01-19T12:56:43.761Z,3.12
2023-01-19T12:58:48.578Z,0.55
2023-01-19T13:00:51.416Z,2.12
2023-01-19T13:02:54.176Z,1.87
2023-01-19T13:05:13.671Z,2.47
2023-01-19T13:07:16.471Z,3.50
2023-01-19T13:09:30.727Z,3.00
2023-01-19T13:11:34.543Z,2.50
2023-01-19T13:13:36.183Z,4.55
2023-01-19T13:15:38.341Z,2.27
2023-01-19T13:17:52.829Z,3.08
2023-01-19T13:19:58.632Z,0.60
2023-01-19T13:22:01.333Z,6.80
2023-01-19T13:24:09.855Z,3.27
2023-01-19T13:26:13.334Z,2.52
2023-01-19T13:28:16.123Z,0.93
2023-01-19T13:30:19.028Z,3.12
2023-01-19T13:32:21.933Z,3.33
2023-01-19T13:34:24.541Z,3.85
2023-01-19T13:36:29.787Z,2.83
2023-01-19T13:38:32.099Z,3.23
2023-01-19T13:40:34.889Z,2.90
2023-01-19T13:42:37.000Z,1.90
2023-01-19T13:44:39.824Z,2.62
2023-01-19T13:46:40.778Z,3.62
2023-01-19T13:48:43.576Z,2.45
2023-01-19T13:50:46.364Z,1.32
2023-01-19T13:52:48.268Z,1.60
2023-01-19T13:54:56.027Z,3.30
2023-01-19T13:56:56.875Z,2.95
2023-01-19T13:58:59.602Z,3.50
2023-01-19T14:01:00.628Z,4.00
2023-01-19T14:03:06.643Z,2.17
2023-01-19T14:05:14.552Z,1.50
2023-01-19T14:07:19.261Z,3.72
2023-01-19T14:09:20.639Z,1.50
2023-01-19T14:11:21.572Z,3.10
2023-01-19T14:13:28.753Z,2.25
2023-01-19T14:15:31.492Z,3.42
2023-01-19T14:17:32.528Z,3.95
2023-01-19T14:19:53.995Z,3.17
2023-01-19T14:22:02.713Z,1.85
2023-01-19T14:24:11.604Z,3.12
2023-01-19T14:26:31.447Z,4.08
2023-01-19T14:28:40.206Z,1.82
2023-01-19T14:30:43.053Z,5.03
2023-01-19T14:32:47.196Z,4.15
2023-01-19T14:34:50.410Z,3.02
2023-01-19T14:36:51.268Z,3.27
2023-01-19T14:38:52.998Z,5.92
2023-01-19T14:40:53.875Z,6.08
2023-01-19T14:42:56.725Z,1.92
2023-01-19T14:44:59.294Z,4.05
2023-01-19T14:47:00.818Z,2.70
2023-01-19T14:49:03.471Z,2.90
2023-01-19T14:51:04.815Z,2.42
2023-01-19T14:53:20.560Z,3.77
2023-01-19T14:55:24.206Z,1.67
2023-01-19T14:57:25.255Z,2.83
2023-01-19T14:59:26.152Z,1.77
2023-01-19T15:01:30.449Z,4.08
2023-01-19T15:03:44.704Z,2.50
2023-01-19T15:05:34.736Z,2.80
2023-01-19T15:07:36.235Z,2.80
2023-01-19T15:09:37.030Z,5.33
2023-01-19T15:11:38.026Z,4.15
2023-01-19T15:13:39.806Z,2.95
2023-01-19T15:15:40.999Z,2.20
2023-01-19T15:17:42.089Z,7.30
2023-01-19T15:19:42.869Z,3.05
2023-01-19T15:21:45.949Z,4.90
2023-01-19T15:23:49.801Z,3.12
2023-01-19T15:25:50.775Z,2.95
2023-01-19T15:27:52.312Z,3.98
2023-01-19T15:29:53.604Z,3.65
2023-01-19T15:31:54.575Z,5.03
2023-01-19T15:33:55.735Z,4.20
2023-01-19T15:35:56.649Z,1.95
2023-01-19T15:37:57.515Z,2.80
2023-01-19T15:39:58.433Z,0.40
2023-01-19T15:41:59.410Z,3.15
2023-01-19T15:44:00.231Z,2.02
2023-01-19T15:46:01.784Z,2.47
2023-01-19T15:48:04.379Z,3.20
2023-01-19T15:50:05.740Z,2.02
2023-01-19T15:52:06.795Z,0.57
2023-01-19T15:54:09.546Z,1.98
2023-01-19T15:56:14.098Z,0.55
2023-01-19T15:58:15.027Z,1.67
2023-01-19T16:00:16.400Z,2.55
2023-01-19T16:02:17.473Z,0.70
2023-01-19T16:04:18.645Z,0.15
2023-01-19T16:06:19.509Z,2.25
2023-01-19T16:08:21.376Z,0.40
2023-01-19T16:10:22.307Z,0.75
2023-01-19T16:12:23.205Z,3.33
2023-01-19T16:14:24.214Z,1.02
2023-01-19T16:16:26.049Z,2.05
2023-01-19T16:18:26.875Z,2.83
2023-01-19T16:20:27.759Z,2.02
2023-01-19T16:22:28.777Z,1.50
2023-01-19T16:24:29.948Z,3.22
2023-01-19T16:26:33.441Z,1.87
2023-01-19T16:28:35.318Z,0.13
2023-01-19T16:30:36.229Z,1.62
2023-01-19T16:32:37.668Z,5.20
2023-01-19T16:34:38.466Z,2.30
2023-01-19T16:36:40.486Z,2.52
2023-01-19T16:38:41.339Z,0.28
2023-01-19T16:40:45.943Z,1.22
2023-01-19T16:42:46.774Z,1.30
2023-01-19T16:44:47.865Z,0.75
2023-01-19T16:46:50.691Z,1.20
2023-01-19T16:48:52.057Z,2.47
2023-01-19T16:51:03.462Z,0.95
2023-01-19T16:53:04.327Z,3.17
2023-01-19T16:55:07.519Z,0.17
2023-01-19T16:57:09.003Z,2.87
2023-01-19T16:59:13.918Z,2.25
2023-01-19T17:01:18.277Z,1.37
2023-01-19T17:03:18.717Z,3.25
2023-01-19T17:05:19.567Z,0.65
2023-01-19T17:07:20.349Z,3.10
2023-01-19T17:09:21.229Z,2.37
2023-01-19T17:11:23.433Z,1.50
2023-01-19T17:13:24.308Z,1.72
2023-01-19T17:15:25.183Z,2.37
2023-01-19T17:17:25.951Z,3.08
2023-01-19T17:19:29.591Z,2.25
2023-01-19T17:21:30.683Z,1.75
2023-01-19T17:23:31.862Z,2.83
2023-01-19T17:25:32.679Z,3.80
2023-01-19T17:27:35.438Z,0.55
2023-01-19T17:29:36.252Z,0.45
2023-01-19T17:31:37.249Z,1.75
2023-01-19T17:33:38.638Z,1.37
2023-01-19T17:35:39.502Z,0.50
2023-01-19T17:37:40.396Z,1.50
2023-01-19T17:39:41.166Z,0.57
2023-01-19T17:41:42.049Z,1.42
2023-01-19T17:43:43.327Z,1.30
2023-01-19T17:45:44.531Z,0.57
2023-01-19T17:47:47.432Z,1.95
2023-01-19T17:49:48.289Z,1.77
2023-01-19T17:51:51.175Z,0.42
2023-01-19T17:53:52.274Z,1.07
2023-01-19T17:55:53.187Z,0.10
2023-01-19T17:57:53.959Z,2.83
2023-01-19T17:59:54.791Z,0.82
2023-01-19T18:01:55.736Z,0.25
2023-01-19T18:03:56.878Z,1.10
2023-01-19T18:05:57.767Z,1.37
2023-01-19T18:07:59.640Z,1.57
2023-01-19T18:10:01.225Z,1.40
2023-01-19T18:12:02.227Z,1.35
2023-01-19T18:14:04.644Z,0.30
2023-01-19T18:16:07.491Z,1.35
2023-01-19T18:18:08.386Z,1.37
2023-01-19T18:20:10.205Z,1.42
2023-01-19T18:22:11.205Z,1.15
2023-01-19T18:24:12.085Z,0.37
2023-01-19T18:26:14.784Z,1.85
2023-01-19T18:28:15.672Z,0.75
2023-01-19T18:30:17.109Z,0.33
2023-01-19T18:32:18.066Z,0.88
2023-01-19T18:34:19.012Z,2.42
2023-01-19T18:36:20.187Z,1.62
2023-01-19T18:38:21.175Z,1.02
2023-01-19T18:40:23.273Z,2.33
2023-01-19T18:42:24.064Z,1.22
2023-01-19T18:44:25.141Z,0.68
2023-01-19T18:46:26.747Z,1.65
2023-01-19T18:48:28.029Z,1.00
2023-01-19T18:50:29.008Z,1.42
2023-01-19T18:52:31.508Z,0.30
2023-01-19T18:54:32.420Z,0.50
2023-01-19T18:56:33.311Z,0.68
2023-01-19T18:58:35.999Z,1.60
2023-01-19T19:00:36.850Z,1.45
2023-01-19T19:02:37.844Z,1.95
2023-01-19T19:04:39.343Z,2.17
2023-01-19T19:06:40.164Z,0.40
2023-01-19T19:08:42.561Z,0.37
2023-01-19T19:10:43.757Z,2.37
2023-01-19T19:12:44.682Z,2.50
2023-01-19T19:14:45.540Z,1.02
2023-01-19T19:16:46.417Z,2.52
2023-01-19T19:18:50.095Z,2.75
2023-01-19T19:20:52.856Z,2.30
2023-01-19T19:22:54.445Z,2.37
2023-01-19T19:24:55.368Z,0.50
2023-01-19T19:26:56.248Z,1.50
2023-01-19T19:28:57.151Z,1.87
2023-01-19T19:31:03.144Z,3.62
2023-01-19T19:33:04.158Z,2.10
2023-01-19T19:35:05.156Z,3.67
2023-01-19T19:37:05.976Z,2.22
2023-01-19T19:39:06.972Z,1.72
2023-01-19T19:41:09.414Z,4.00
2023-01-19T19:43:10.302Z,2.10
2023-01-19T19:45:11.609Z,2.27
2023-01-19T19:47:12.592Z,3.35
2023-01-19T19:49:14.663Z,2.50
2023-01-19T19:51:19.241Z,1.55
2023-01-19T19:53:20.861Z,1.47
2023-01-19T19:55:21.804Z,1.98
2023-01-19T19:57:22.659Z,0.65
2023-01-19T19:59:23.529Z,1.05
2023-01-19T20:01:28.080Z,2.47
2023-01-19T20:03:30.147Z,1.42
2023-01-19T20:05:31.557Z,2.75
2023-01-19T20:07:32.735Z,1.20
2023-01-19T20:09:35.336Z,1.57
2023-01-19T20:11:36.448Z,1.80
2023-01-19T20:13:38.223Z,2.65
2023-01-19T20:15:39.022Z,3.65
2023-01-19T20:17:39.804Z,2.00
2023-01-19T20:19:40.591Z,2.05
2023-01-19T20:21:41.594Z,2.70
2023-01-19T20:23:43.155Z,0.30
2023-01-19T20:25:44.343Z,1.25
2023-01-19T20:27:45.239Z,0.10
2023-01-19T20:29:51.540Z,2.65
2023-01-19T20:31:51.870Z,0.40
2023-01-19T20:33:54.044Z,0.60
2023-01-19T20:35:54.957Z,1.50
2023-01-19T20:37:55.831Z,0.42
2023-01-19T20:39:56.711Z,0.30
2023-01-19T20:41:57.580Z,0.20
2023-01-19T20:43:58.453Z,1.12
2023-01-19T20:45:59.360Z,0.50
2023-01-19T20:48:00.263Z,2.72
2023-01-19T20:50:01.767Z,0.42
2023-01-19T20:52:04.724Z,0.45
2023-01-19T20:54:05.527Z,0.10
2023-01-19T20:56:07.540Z,0.30
2023-01-19T20:58:08.316Z,0.20
2023-01-19T21:00:10.020Z,0.10
2023-01-19T21:02:15.363Z,0.50
2023-01-19T21:04:19.043Z,0.10
2023-01-19T21:06:20.319Z,1.22
2023-01-19T21:08:21.127Z,0.10
2023-01-19T21:10:21.908Z,0.57
2023-01-19T21:12:22.780Z,0.10
2023-01-19T21:14:23.575Z,0.20
2023-01-19T21:16:25.694Z,0.10
2023-01-19T21:18:27.249Z,0.30
2023-01-19T21:20:29.268Z,0.37
2023-01-19T21:22:30.149Z,1.17
2023-01-19T21:24:31.031Z,0.10
2023-01-19T21:26:32.653Z,1.52
2023-01-19T21:28:33.534Z,1.57
2023-01-19T21:30:35.521Z,0.88
2023-01-19T21:32:36.423Z,0.47
2023-01-19T21:34:37.202Z,0.50
2023-01-19T21:36:38.082Z,1.37
2023-01-19T21:38:38.999Z,0.40
2023-01-19T21:40:39.866Z,0.85
2023-01-19T21:42:40.951Z,0.95
2023-01-19T21:44:41.730Z,0.40
2023-01-19T21:46:42.729Z,0.72
2023-01-19T21:48:45.120Z,0.10
2023-01-19T21:50:47.927Z,0.60
2023-01-19T21:52:48.759Z,1.50
2023-01-19T21:54:49.624Z,0.78
2023-01-19T21:56:50.427Z,0.10
2023-01-19T21:58:51.406Z,5.78
2023-01-19T22:00:59.892Z,0.75
2023-01-19T22:03:04.282Z,1.00
2023-01-19T22:05:05.711Z,0.45
2023-01-19T22:07:06.605Z,0.78
2023-01-19T22:09:07.674Z,0.50
2023-01-19T22:11:09.504Z,1.32
2023-01-19T22:13:10.386Z,0.85
2023-01-19T22:15:11.686Z,0.88
2023-01-19T22:17:12.664Z,0.45
2023-01-19T22:19:13.784Z,0.50
2023-01-19T22:21:16.575Z,1.07
2023-01-19T22:23:17.465Z,0.95
2023-01-19T22:25:20.263Z,0.42
2023-01-19T22:27:21.156Z,0.17
2023-01-19T22:29:22.073Z,0.33
2023-01-19T22:31:23.445Z,1.32
2023-01-19T22:33:24.441Z,0.82
2023-01-19T22:35:25.337Z,0.42
2023-01-19T22:37:26.254Z,0.62
2023-01-19T22:39:27.434Z,1.65
2023-01-19T22:41:29.229Z,0.50
2023-01-19T22:43:30.128Z,0.93
2023-01-19T22:45:31.014Z,0.35
2023-01-19T22:47:31.907Z,0.30
2023-01-19T22:49:32.688Z,0.42
2023-01-19T22:51:34.174Z,1.50
2023-01-19T22:53:35.183Z,0.55
2023-01-19T22:55:36.044Z,0.50
2023-01-19T22:57:37.544Z,1.02
2023-01-19T22:59:38.437Z,1.05
2023-01-19T23:01:40.676Z,0.85
2023-01-19T23:03:41.881Z,1.30
2023-01-19T23:05:42.854Z,0.20
2023-01-19T23:07:43.811Z,0.10
2023-01-19T23:09:44.884Z,0.72
2023-01-19T23:11:50.627Z,0.20
2023-01-19T23:13:51.603Z,0.78
2023-01-19T23:15:52.455Z,0.50
2023-01-19T23:17:53.297Z,0.93
2023-01-19T23:19:54.336Z,0.35
2023-01-19T23:21:55.219Z,0.45
2023-01-19T23:23:56.701Z,0.72
2023-01-19T23:26:08.193Z,0.20
2023-01-19T23:28:09.100Z,0.55
2023-01-19T23:30:10.479Z,0.28
2023-01-19T23:32:11.280Z,1.02
2023-01-19T23:34:12.811Z,0.28
2023-01-19T23:36:14.120Z,0.95
2023-01-19T23:38:14.976Z,0.72
2023-01-19T23:40:16.032Z,0.10
2023-01-19T23:42:16.920Z,0.85
2023-01-19T23:44:17.844Z,1.10
2023-01-19T23:46:19.599Z,1.42
2023-01-19T23:48:20.637Z,0.65
2023-01-19T23:50:21.418Z,0.55
2023-01-19T23:52:22.305Z,1.42
2023-01-19T23:54:23.122Z,0.20
2023-01-19T23:56:25.909Z,0.60
2023-01-19T23:58:26.789Z,1.02
